Time;durP1;ratioP1;P1;durP2;ratioP2;P2;SDS_P1;SDS_P2;PMS_P1;PMS_P2;Temp;Humidity;BMP_temperature;BMP_pressure;BME280_temperature;BME280_humidity;BME280_pressure;Samples;Min_cycle;Max_cycle;Signal;HPM_P1;HPM_P2
2022/03/31 00:00:40;;;;;;;9.90;5.90;;;8.50;41.20;;;;;;4913621;29;20032;-85
2022/03/31 00:03:09;;;;;;;14.13;6.07;;;8.50;41.10;;;;;;4896736;29;20038;-85
2022/03/31 00:05:36;;;;;;;14.50;6.07;;;8.50;41.10;;;;;;4897407;29;20036;-86
2022/03/31 00:08:06;;;;;;;15.20;6.72;;;8.50;41.10;;;;;;4912073;29;20459;-86
2022/03/31 00:10:38;;;;;;;15.05;7.18;;;8.50;41.10;;;;;;4897130;29;20048;-85
2022/03/31 00:13:07;;;;;;;19.30;6.55;;;8.50;41.10;;;;;;4912762;29;20143;-86
2022/03/31 00:15:34;;;;;;;12.48;6.35;;;8.50;41.10;;;;;;4890662;29;20044;-86
2022/03/31 00:18:02;;;;;;;12.85;6.88;;;8.50;41.20;;;;;;4912300;29;20046;-84
2022/03/31 00:20:30;;;;;;;12.77;6.32;;;8.40;41.10;;;;;;4895764;29;20123;-84
2022/03/31 00:22:56;;;;;;;12.07;6.90;;;8.50;41.30;;;;;;4914203;29;20138;-84
2022/03/31 00:25:26;;;;;;;10.25;6.68;;;8.50;41.30;;;;;;4912869;29;20118;-85
2022/03/31 00:27:53;;;;;;;13.15;6.97;;;8.40;41.20;;;;;;4912062;29;20562;-85
2022/03/31 00:30:19;;;;;;;15.90;6.70;;;8.40;41.20;;;;;;4896764;29;20110;-84
2022/03/31 00:32:45;;;;;;;10.95;6.65;;;8.40;41.30;;;;;;4911899;29;20087;-84
2022/03/31 00:35:13;;;;;;;16.40;6.53;;;8.40;41.30;;;;;;4912412;29;20062;-83
2022/03/31 00:37:43;;;;;;;12.63;6.70;;;8.40;41.20;;;;;;4889962;29;20526;-83
2022/03/31 00:40:11;;;;;;;15.43;7.40;;;8.40;41.30;;;;;;4895342;29;20574;-83
2022/03/31 00:42:51;;;;;;;18.42;6.88;;;8.30;41.30;;;;;;4922883;29;20040;-83
2022/03/31 00:45:25;;;;;;;11.38;6.30;;;8.40;41.40;;;;;;4925481;29;20036;-83
2022/03/31 00:47:52;;;;;;;17.38;7.07;;;8.40;41.40;;;;;;4881038;29;20055;-83
2022/03/31 00:50:19;;;;;;;18.50;7.28;;;8.30;41.40;;;;;;4910240;29;20031;-83
2022/03/31 00:52:46;;;;;;;12.75;6.93;;;8.40;41.40;;;;;;4912321;29;20043;-86
2022/03/31 00:55:14;;;;;;;15.25;7.07;;;8.40;41.40;;;;;;4932115;29;20032;-85
2022/03/31 00:57:43;;;;;;;11.77;7.32;;;8.30;41.30;;;;;;4899818;29;20450;-86
2022/03/31 01:00:10;;;;;;;14.60;6.53;;;8.30;41.40;;;;;;4884408;29;20040;-85
2022/03/31 01:02:40;;;;;;;15.60;6.80;;;8.30;41.40;;;;;;4900005;29;20111;-86
2022/03/31 01:05:07;;;;;;;13.05;6.47;;;8.30;41.50;;;;;;4899396;29;20130;-85
2022/03/31 01:07:40;;;;;;;12.50;6.70;;;8.30;41.50;;;;;;4933096;29;20119;-85
2022/03/31 01:10:07;;;;;;;16.90;7.07;;;8.20;41.50;;;;;;4884287;29;20072;-86
2022/03/31 01:12:34;;;;;;;12.73;6.57;;;8.30;41.60;;;;;;4915229;29;20541;-86
2022/03/31 01:15:10;;;;;;;17.27;7.07;;;8.30;41.60;;;;;;4915245;29;20043;-85
2022/03/31 01:17:38;;;;;;;19.88;7.40;;;8.20;41.60;;;;;;4912555;29;20086;-84
2022/03/31 01:20:08;;;;;;;16.42;7.75;;;8.30;41.70;;;;;;4916148;29;20514;-86
2022/03/31 01:22:34;;;;;;;10.80;6.47;;;8.20;41.70;;;;;;4912754;29;20452;-86
2022/03/31 01:25:02;;;;;;;14.75;7.18;;;8.20;41.70;;;;;;4915510;29;20130;-86
2022/03/31 01:27:29;;;;;;;19.20;7.15;;;8.20;41.70;;;;;;4932153;29;20043;-86
2022/03/31 01:29:55;;;;;;;18.33;7.35;;;8.20;41.70;;;;;;4936780;29;20126;-86
2022/03/31 01:32:22;;;;;;;12.20;7.60;;;8.20;41.80;;;;;;4921810;29;20515;-86
2022/03/31 01:34:48;;;;;;;11.85;7.25;;;8.20;41.80;;;;;;4906243;29;20495;-85
2022/03/31 01:37:14;;;;;;;17.23;7.35;;;8.20;41.80;;;;;;4905190;29;20051;-86
2022/03/31 01:39:41;;;;;;;14.48;6.85;;;8.20;41.80;;;;;;4903653;29;20046;-86
2022/03/31 01:42:09;;;;;;;13.48;6.78;;;8.20;41.90;;;;;;4915897;29;20040;-88
2022/03/31 01:44:35;;;;;;;17.60;6.93;;;8.20;41.90;;;;;;4932917;29;20171;-86
2022/03/31 01:47:01;;;;;;;13.35;6.85;;;8.20;42.00;;;;;;4934587;29;20628;-85
2022/03/31 01:49:27;;;;;;;15.15;7.03;;;8.10;41.90;;;;;;4902577;29;20058;-85
2022/03/31 01:51:53;;;;;;;15.18;7.25;;;8.10;41.90;;;;;;4919804;29;20127;-85
2022/03/31 01:54:19;;;;;;;15.38;7.20;;;8.10;42.00;;;;;;4902778;29;20421;-85
2022/03/31 01:56:45;;;;;;;14.02;7.30;;;8.10;42.00;;;;;;4932996;29;20059;-86
2022/03/31 01:59:11;;;;;;;15.18;6.63;;;8.10;42.00;;;;;;4914743;29;20042;-86
2022/03/31 02:01:37;;;;;;;12.55;6.72;;;8.10;42.00;;;;;;4915287;29;20439;-86
2022/03/31 02:04:03;;;;;;;15.70;6.57;;;8.10;42.10;;;;;;4930781;29;20043;-85
2022/03/31 02:06:29;;;;;;;13.32;6.78;;;8.10;42.10;;;;;;4931028;29;20046;-87
2022/03/31 02:08:56;;;;;;;14.88;7.25;;;8.10;42.20;;;;;;4933433;29;20036;-86
2022/03/31 02:11:23;;;;;;;12.93;6.65;;;8.10;42.20;;;;;;4898254;29;20044;-86
2022/03/31 02:13:49;;;;;;;14.82;7.18;;;8.00;42.20;;;;;;4932626;29;20143;-85
2022/03/31 02:16:15;;;;;;;14.77;7.35;;;8.10;42.30;;;;;;4931704;29;20043;-86
2022/03/31 02:18:41;;;;;;;19.38;7.80;;;8.00;42.20;;;;;;4931214;29;20039;-85
2022/03/31 02:21:07;;;;;;;12.82;7.53;;;8.10;42.30;;;;;;4914110;29;20031;-86
2022/03/31 02:23:33;;;;;;;19.20;7.63;;;8.00;42.30;;;;;;4930872;29;20063;-85
2022/03/31 02:25:59;;;;;;;15.15;7.72;;;8.00;42.30;;;;;;4899459;29;20497;-86
2022/03/31 02:28:25;;;;;;;15.95;7.80;;;8.00;42.30;;;;;;4898575;29;20122;-86
2022/03/31 02:30:51;;;;;;;19.05;8.63;;;8.00;42.40;;;;;;4913551;29;20048;-87
2022/03/31 02:33:18;;;;;;;15.45;7.63;;;8.00;42.40;;;;;;4898406;29;20058;-86
2022/03/31 02:35:44;;;;;;;15.93;8.15;;;7.90;42.40;;;;;;4897870;29;20131;-86
2022/03/31 02:38:10;;;;;;;18.77;7.82;;;8.00;42.40;;;;;;4931701;29;20084;-86
2022/03/31 02:40:36;;;;;;;18.30;7.75;;;7.90;42.40;;;;;;4933634;29;20103;-86
2022/03/31 02:43:02;;;;;;;14.00;7.63;;;8.00;42.50;;;;;;4916007;29;20148;-86
2022/03/31 02:45:28;;;;;;;17.15;7.88;;;8.00;42.50;;;;;;4935131;29;20076;-86
2022/03/31 02:47:54;;;;;;;15.30;8.05;;;7.90;42.50;;;;;;4917358;29;20036;-86
2022/03/31 02:50:20;;;;;;;17.25;8.77;;;7.90;42.60;;;;;;4935867;29;20126;-85
2022/03/31 02:55:31;;;;;;;16.55;7.47;;;7.90;42.60;;;;;;4933996;29;20499;-86
2022/03/31 02:58:04;;;;;;;15.32;8.13;;;7.90;42.60;;;;;;4919172;29;20039;-86
2022/03/31 03:00:32;;;;;;;15.73;7.80;;;7.90;42.60;;;;;;4935710;29;20036;-85
2022/03/31 03:02:59;;;;;;;11.93;6.97;;;7.90;42.70;;;;;;4901982;29;20027;-84
2022/03/31 03:05:25;;;;;;;15.80;7.40;;;7.90;42.70;;;;;;4937403;29;20057;-84
2022/03/31 03:07:51;;;;;;;15.80;7.45;;;7.90;42.80;;;;;;4923960;29;20111;-84
2022/03/31 03:10:17;;;;;;;15.15;6.97;;;7.90;42.80;;;;;;4916396;29;20039;-84
2022/03/31 03:12:44;;;;;;;14.73;7.53;;;7.90;42.90;;;;;;4925282;29;20047;-84
2022/03/31 03:15:10;;;;;;;14.68;7.63;;;7.90;42.90;;;;;;4914877;29;20055;-85
2022/03/31 03:17:41;;;;;;;15.25;8.18;;;7.90;42.90;;;;;;4882570;29;20069;-85
2022/03/31 03:20:13;;;;;;;15.82;7.40;;;7.80;42.90;;;;;;4893968;29;20031;-85
2022/03/31 03:22:57;;;;;;;16.60;7.68;;;7.90;43.00;;;;;;4914421;29;20229;-85
2022/03/31 03:25:23;;;;;;;13.32;7.00;;;7.90;43.10;;;;;;4912882;29;20042;-84
2022/03/31 03:27:50;;;;;;;15.98;7.35;;;7.80;43.10;;;;;;4913248;29;20046;-84
2022/03/31 03:30:18;;;;;;;12.35;6.93;;;7.90;43.20;;;;;;4913428;29;20113;-84
2022/03/31 03:32:45;;;;;;;16.38;6.88;;;7.80;43.20;;;;;;4897790;29;20052;-86
2022/03/31 03:35:12;;;;;;;12.00;7.05;;;7.90;43.30;;;;;;4897521;29;20039;-84
2022/03/31 03:37:40;;;;;;;12.30;7.00;;;7.80;43.50;;;;;;4931000;29;20043;-85
2022/03/31 03:40:09;;;;;;;10.50;6.63;;;7.90;43.40;;;;;;4930783;29;20137;-83
2022/03/31 03:42:38;;;;;;;12.45;6.63;;;7.90;43.40;;;;;;4897520;29;20035;-85
2022/03/31 03:45:05;;;;;;;14.13;7.10;;;7.80;43.60;;;;;;4897124;29;20095;-85
2022/03/31 03:47:32;;;;;;;16.90;7.03;;;7.80;43.80;;;;;;4897942;29;20047;-83
2022/03/31 03:49:58;;;;;;;12.45;6.13;;;7.80;44.00;;;;;;4912634;29;20039;-83
2022/03/31 03:52:23;;;;;;;14.38;6.47;;;7.90;44.10;;;;;;4896551;29;20036;-82
2022/03/31 03:54:50;;;;;;;11.13;6.22;;;7.80;44.10;;;;;;4912396;29;20036;-82
2022/03/31 03:57:16;;;;;;;12.90;6.32;;;7.90;44.10;;;;;;4896626;29;20035;-82
2022/03/31 03:59:42;;;;;;;12.10;5.95;;;7.90;44.10;;;;;;4929421;29;20533;-82
2022/03/31 04:02:08;;;;;;;10.05;5.82;;;7.90;44.10;;;;;;4910533;29;20042;-81
2022/03/31 04:04:34;;;;;;;14.07;6.32;;;7.90;44.20;;;;;;4930304;29;20047;-82
2022/03/31 04:07:01;;;;;;;12.80;6.65;;;7.90;44.20;;;;;;4929711;29;20044;-82
2022/03/31 04:09:27;;;;;;;7.90;4.82;;;7.90;44.30;;;;;;4911505;29;20100;-83
2022/03/31 04:11:53;;;;;;;13.23;5.82;;;7.90;44.30;;;;;;4928622;29;20469;-81
2022/03/31 04:14:20;;;;;;;13.23;6.47;;;7.90;44.30;;;;;;4928959;29;20031;-81
2022/03/31 04:16:47;;;;;;;8.25;5.32;;;7.90;44.30;;;;;;4929302;29;20523;-81
2022/03/31 04:19:13;;;;;;;11.70;5.90;;;7.90;44.30;;;;;;4928083;29;20040;-82
2022/03/31 04:21:39;;;;;;;8.82;5.53;;;7.90;44.30;;;;;;4912480;29;20040;-81
2022/03/31 04:24:06;;;;;;;8.73;5.60;;;7.90;44.30;;;;;;4931635;29;20039;-80
2022/03/31 04:26:33;;;;;;;13.07;6.45;;;7.90;44.40;;;;;;4930442;29;20059;-82
2022/03/31 04:29:01;;;;;;;9.05;5.55;;;7.90;44.40;;;;;;4928900;29;20075;-82
2022/03/31 04:31:29;;;;;;;9.32;5.88;;;7.90;44.50;;;;;;4928638;29;20095;-82
2022/03/31 04:33:55;;;;;;;10.00;5.20;;;7.90;44.60;;;;;;4928674;29;20050;-81
2022/03/31 04:36:21;;;;;;;8.52;5.32;;;8.00;44.70;;;;;;4894708;29;20055;-79
2022/03/31 04:38:47;;;;;;;11.18;5.45;;;8.00;44.70;;;;;;4929398;29;20036;-83
2022/03/31 04:41:13;;;;;;;8.15;5.13;;;8.00;44.80;;;;;;4908012;29;20055;-79
2022/03/31 04:43:39;;;;;;;8.07;5.13;;;8.00;44.80;;;;;;4912453;29;20035;-80
2022/03/31 04:46:05;;;;;;;9.48;5.10;;;8.00;45.00;;;;;;4906321;29;20042;-80
2022/03/31 04:48:34;;;;;;;8.00;4.88;;;8.00;44.80;;;;;;4897764;29;20035;-81
2022/03/31 04:51:00;;;;;;;8.88;5.28;;;8.00;44.90;;;;;;4928653;29;20076;-80
2022/03/31 04:53:26;;;;;;;11.18;5.28;;;8.00;44.90;;;;;;4930052;29;20538;-81
2022/03/31 04:55:52;;;;;;;8.40;5.10;;;8.00;44.90;;;;;;4912191;29;20040;-80
2022/03/31 04:58:18;;;;;;;7.88;5.22;;;8.00;45.00;;;;;;4912004;29;20650;-80
2022/03/31 05:00:44;;;;;;;9.95;5.32;;;8.00;45.00;;;;;;4911435;29;20131;-80
2022/03/31 05:03:10;;;;;;;10.02;5.45;;;8.00;45.00;;;;;;4912825;29;20040;-82
2022/03/31 05:05:36;;;;;;;9.07;4.63;;;8.10;45.10;;;;;;4929733;29;20539;-81
2022/03/31 05:08:03;;;;;;;8.07;4.72;;;8.10;45.20;;;;;;4929691;29;20419;-79
2022/03/31 05:10:29;;;;;;;9.80;4.97;;;8.10;45.20;;;;;;4925894;29;20111;-80
2022/03/31 05:12:57;;;;;;;9.90;5.15;;;8.10;45.20;;;;;;4911493;29;20051;-77
2022/03/31 05:15:23;;;;;;;10.82;4.93;;;8.20;45.20;;;;;;4927964;29;20048;-78
2022/03/31 05:17:49;;;;;;;10.30;4.53;;;8.20;45.30;;;;;;4928628;29;20032;-77
2022/03/31 05:20:15;;;;;;;8.07;4.53;;;8.20;45.50;;;;;;4928020;29;20495;-78
2022/03/31 05:22:41;;;;;;;8.52;4.90;;;8.30;45.60;;;;;;4911065;29;20059;-77
2022/03/31 05:25:09;;;;;;;7.50;5.00;;;8.40;45.70;;;;;;4927648;29;20039;-77
2022/03/31 05:27:41;;;;;;;10.00;4.75;;;8.40;45.80;;;;;;4926738;29;20470;-77
2022/03/31 05:30:07;;;;;;;8.77;4.30;;;8.50;46.00;;;;;;4928355;29;20051;-77
2022/03/31 05:32:33;;;;;;;9.40;5.22;;;8.50;45.90;;;;;;4927521;29;20051;-77
2022/03/31 05:34:59;;;;;;;8.52;4.82;;;8.60;46.00;;;;;;4911504;29;20280;-77
2022/03/31 05:37:25;;;;;;;7.88;4.53;;;8.60;46.00;;;;;;4928158;29;20032;-78
2022/03/31 05:39:51;;;;;;;9.77;4.95;;;8.70;46.10;;;;;;4928517;29;20094;-77
2022/03/31 05:42:17;;;;;;;6.45;4.47;;;8.70;46.10;;;;;;4910927;29;20507;-79
2022/03/31 05:44:43;;;;;;;7.30;4.00;;;8.80;46.20;;;;;;4930809;29;20036;-79
2022/03/31 05:47:09;;;;;;;7.82;4.68;;;8.80;46.10;;;;;;4931625;29;20038;-78
2022/03/31 05:49:35;;;;;;;8.05;4.60;;;8.80;46.10;;;;;;4931251;29;20407;-79
2022/03/31 05:52:01;;;;;;;6.60;4.20;;;8.90;46.10;;;;;;4930598;29;20071;-78
2022/03/31 05:54:28;;;;;;;9.52;4.35;;;8.90;46.00;;;;;;4931856;29;20515;-79
2022/03/31 05:56:53;;;;;;;7.30;4.30;;;8.90;46.00;;;;;;4899280;29;20043;-81
2022/03/31 05:59:19;;;;;;;6.82;3.90;;;9.00;46.10;;;;;;4932188;29;20719;-86
2022/03/31 06:01:45;;;;;;;6.47;4.47;;;9.00;46.30;;;;;;4933101;29;20028;-82
2022/03/31 06:04:11;;;;;;;7.75;4.15;;;9.00;46.60;;;;;;4915435;29;20039;-82
2022/03/31 06:06:37;;;;;;;7.20;4.13;;;9.10;46.80;;;;;;4914689;29;20130;-82
2022/03/31 06:09:03;;;;;;;8.55;4.13;;;9.10;46.60;;;;;;4914012;29;20171;-84
2022/03/31 06:11:29;;;;;;;7.90;4.18;;;9.20;46.60;;;;;;4915320;29;20036;-78
2022/03/31 06:13:55;;;;;;;7.68;4.30;;;9.20;46.50;;;;;;4932347;29;20071;-88
2022/03/31 06:16:21;;;;;;;10.43;4.18;;;9.30;46.40;;;;;;4931046;29;20527;-88
2022/03/31 06:18:47;;;;;;;14.10;7.57;;;9.30;46.40;;;;;;4916961;29;20102;-88
2022/03/31 06:21:13;;;;;;;13.25;7.47;;;9.30;46.40;;;;;;4934602;29;20529;-86
2022/03/31 06:23:39;;;;;;;12.30;7.22;;;9.40;46.40;;;;;;4931533;29;20031;-87
2022/03/31 06:26:05;;;;;;;10.13;6.60;;;9.40;46.40;;;;;;4914845;29;20031;-88
2022/03/31 06:28:32;;;;;;;9.80;5.70;;;9.40;46.40;;;;;;4915242;29;20035;-87
2022/03/31 06:30:58;;;;;;;8.23;5.13;;;9.50;46.40;;;;;;4932892;29;20036;-87
2022/03/31 06:33:25;;;;;;;11.65;5.05;;;9.50;46.50;;;;;;4915215;29;20101;-85
2022/03/31 06:35:51;;;;;;;7.80;4.63;;;9.50;46.50;;;;;;4932295;29;20048;-88
2022/03/31 06:38:17;;;;;;;6.90;4.75;;;9.60;46.50;;;;;;4915123;29;20123;-87
2022/03/31 06:41:06;;;;;;;9.02;4.50;;;9.60;46.50;;;;;;4898480;29;20028;-84
2022/03/31 06:43:29;;;;;;;;;;;9.60;46.50;;;;;;4931288;29;20598;-84
2022/03/31 06:45:55;;;;;;;5.38;3.47;;;9.70;46.60;;;;;;4890236;29;20064;-84
2022/03/31 06:48:20;;;;;;;9.63;4.15;;;9.70;46.60;;;;;;4914094;29;20039;-83
2022/03/31 06:50:46;;;;;;;6.50;3.67;;;9.80;46.70;;;;;;4912983;29;20054;-84
2022/03/31 06:53:12;;;;;;;8.65;3.67;;;9.80;46.70;;;;;;4913744;29;20392;-85
2022/03/31 06:55:38;;;;;;;7.05;3.47;;;9.80;46.70;;;;;;4914945;29;20032;-85
2022/03/31 06:58:04;;;;;;;8.48;3.88;;;9.80;46.60;;;;;;4908810;29;20388;-83
2022/03/31 07:00:30;;;;;;;5.10;3.42;;;9.80;46.60;;;;;;4931543;29;20036;-84
2022/03/31 07:02:56;;;;;;;10.88;4.65;;;9.90;46.70;;;;;;4899169;29;20044;-85
2022/03/31 07:05:22;;;;;;;7.50;4.00;;;9.90;46.70;;;;;;4896960;29;20040;-83
2022/03/31 07:07:48;;;;;;;7.95;4.70;;;9.90;46.60;;;;;;4910663;29;20067;-85
2022/03/31 07:10:14;;;;;;;5.10;3.88;;;10.00;46.60;;;;;;4929785;29;20070;-84
2022/03/31 07:12:40;;;;;;;9.90;4.90;;;10.00;46.50;;;;;;4913279;29;20036;-83
2022/03/31 07:15:07;;;;;;;11.27;5.18;;;10.00;46.50;;;;;;4930422;29;20043;-84
2022/03/31 07:17:33;;;;;;;10.43;4.88;;;10.10;46.60;;;;;;4897259;29;20036;-84
2022/03/31 07:20:00;;;;;;;11.75;5.35;;;10.10;46.50;;;;;;4897739;29;20179;-85
2022/03/31 07:22:26;;;;;;;10.68;5.63;;;10.10;46.40;;;;;;4925035;29;20038;-85
2022/03/31 07:24:52;;;;;;;10.07;5.05;;;10.10;46.40;;;;;;4894805;29;20040;-85
2022/03/31 07:27:19;;;;;;;9.48;5.15;;;10.20;46.40;;;;;;4913198;29;20042;-84
2022/03/31 07:29:45;;;;;;;9.02;5.10;;;10.20;46.40;;;;;;4913009;29;20036;-84
2022/03/31 07:32:11;;;;;;;10.75;4.72;;;10.20;46.30;;;;;;4912967;29;20036;-86
2022/03/31 07:34:37;;;;;;;10.70;4.47;;;10.20;46.30;;;;;;4898103;29;20079;-85
2022/03/31 07:37:05;;;;;;;8.48;4.00;;;10.30;46.30;;;;;;4912621;29;20053;-85
2022/03/31 07:39:33;;;;;;;9.55;3.83;;;10.30;46.30;;;;;;4897631;29;20097;-85
2022/03/31 07:41:59;;;;;;;10.57;3.67;;;10.30;46.30;;;;;;4914267;29;20032;-85
2022/03/31 07:44:25;;;;;;;6.97;3.20;;;10.40;46.30;;;;;;4896203;29;20034;-85
2022/03/31 07:46:51;;;;;;;9.10;3.33;;;10.40;46.30;;;;;;4883259;29;20091;-84
2022/03/31 07:49:18;;;;;;;7.38;3.20;;;10.40;46.30;;;;;;4913652;29;20047;-85
2022/03/31 07:51:44;;;;;;;5.35;2.90;;;10.40;46.20;;;;;;4913544;29;20469;-84
2022/03/31 07:54:10;;;;;;;7.03;2.80;;;10.40;46.10;;;;;;4929388;29;20050;-84
2022/03/31 07:56:36;;;;;;;5.22;2.88;;;10.40;46.10;;;;;;4898271;29;20043;-85
2022/03/31 07:59:06;;;;;;;7.05;3.30;;;10.40;45.90;;;;;;4905587;29;20047;-84
2022/03/31 08:01:33;;;;;;;5.85;3.10;;;10.40;45.80;;;;;;4912428;29;20039;-85
2022/03/31 08:03:59;;;;;;;5.85;3.05;;;10.40;46.40;;;;;;4911989;29;20084;-85
2022/03/31 08:06:25;;;;;;;8.75;3.50;;;10.40;45.70;;;;;;4912423;29;20103;-84
2022/03/31 08:08:51;;;;;;;6.53;2.90;;;10.50;45.70;;;;;;4881155;29;20511;-84
2022/03/31 08:11:17;;;;;;;4.05;2.83;;;10.50;45.70;;;;;;4912133;29;20032;-84
2022/03/31 08:13:43;;;;;;;10.57;3.10;;;10.50;45.60;;;;;;4892497;29;20038;-84
2022/03/31 08:16:09;;;;;;;5.03;2.67;;;10.50;45.70;;;;;;4911945;29;20051;-85
2022/03/31 08:18:36;;;;;;;5.75;2.88;;;10.50;45.70;;;;;;4898181;29;20027;-85
2022/03/31 08:21:02;;;;;;;5.85;2.60;;;10.50;45.60;;;;;;4911160;29;20031;-84
2022/03/31 08:23:28;;;;;;;6.28;2.63;;;10.50;45.60;;;;;;4919650;29;20418;-85
2022/03/31 08:25:55;;;;;;;5.55;3.05;;;10.50;45.60;;;;;;4929862;29;20036;-84
2022/03/31 08:28:21;;;;;;;7.10;3.35;;;10.60;45.70;;;;;;4929172;29;20252;-83
2022/03/31 08:30:48;;;;;;;10.82;3.90;;;10.60;45.70;;;;;;4911350;29;20032;-84
2022/03/31 08:33:14;;;;;;;8.90;3.55;;;10.60;45.70;;;;;;4895046;29;20075;-84
2022/03/31 08:35:41;;;;;;;9.20;3.67;;;10.60;45.70;;;;;;4912143;29;20118;-85
2022/03/31 08:38:07;;;;;;;8.20;3.70;;;10.60;45.70;;;;;;4896189;29;20525;-83
2022/03/31 08:40:33;;;;;;;6.78;3.28;;;10.60;45.60;;;;;;4929177;29;20034;-84
2022/03/31 08:43:01;;;;;;;8.52;4.10;;;10.60;45.70;;;;;;4896150;29;20032;-86
2022/03/31 08:45:28;;;;;;;7.03;3.60;;;10.60;45.70;;;;;;4911680;29;20043;-85
2022/03/31 08:47:58;;;;;;;6.45;3.53;;;10.60;45.70;;;;;;4911125;29;20040;-85
2022/03/31 08:50:24;;;;;;;7.80;3.45;;;10.60;45.70;;;;;;4911677;29;20274;-83
2022/03/31 08:52:50;;;;;;;6.65;3.25;;;10.70;45.70;;;;;;4929266;29;20027;-85
2022/03/31 08:55:17;;;;;;;4.85;3.15;;;10.60;45.70;;;;;;4928880;29;20035;-85
2022/03/31 08:57:49;;;;;;;5.45;3.30;;;10.70;45.60;;;;;;4910514;29;20106;-85
2022/03/31 09:00:17;;;;;;;5.60;2.95;;;10.70;45.60;;;;;;4910053;29;20055;-84
2022/03/31 09:02:55;;;;;;;5.05;2.97;;;10.70;45.60;;;;;;4919550;29;21563;-85
2022/03/31 09:05:21;;;;;;;5.13;2.78;;;10.70;45.50;;;;;;4896252;29;20058;-84
2022/03/31 09:08:02;;;;;;;4.55;2.67;;;10.70;45.60;;;;;;4929326;29;20104;-85
2022/03/31 09:10:33;;;;;;;3.65;2.63;;;10.70;45.50;;;;;;4923809;29;20514;-85
2022/03/31 09:13:01;;;;;;;3.47;2.40;;;10.70;45.70;;;;;;4912335;29;20035;-86
2022/03/31 09:15:28;;;;;;;4.45;2.30;;;10.70;45.70;;;;;;4900141;29;20043;-85
2022/03/31 09:17:56;;;;;;;3.33;2.30;;;10.70;45.70;;;;;;4933065;29;20431;-85
2022/03/31 09:20:22;;;;;;;3.95;2.35;;;10.70;45.70;;;;;;4898616;29;20032;-85
2022/03/31 09:22:49;;;;;;;4.60;2.88;;;10.80;45.80;;;;;;4911434;29;20043;-85
2022/03/31 09:25:26;;;;;;;5.68;2.90;;;10.70;45.80;;;;;;4926760;29;20070;-83
2022/03/31 09:27:53;;;;;;;5.72;2.45;;;10.70;45.90;;;;;;4883923;29;20044;-83
2022/03/31 09:30:19;;;;;;;3.38;2.95;;;10.80;45.90;;;;;;4915508;29;20107;-85
2022/03/31 09:32:50;;;;;;;5.85;2.78;;;10.80;45.90;;;;;;4915641;29;20044;-86
2022/03/31 09:35:21;;;;;;;4.90;3.38;;;10.80;46.00;;;;;;4933331;29;20038;-86
2022/03/31 09:37:49;;;;;;;5.35;3.50;;;10.80;46.10;;;;;;4915947;29;20123;-87
2022/03/31 09:40:17;;;;;;;4.22;3.00;;;10.80;46.10;;;;;;4932055;29;20047;-87
2022/03/31 09:42:43;;;;;;;6.00;3.78;;;10.80;46.20;;;;;;4914390;29;20119;-85
2022/03/31 09:45:10;;;;;;;6.07;3.55;;;10.80;46.20;;;;;;4933055;29;20036;-86
2022/03/31 09:47:44;;;;;;;6.95;3.97;;;10.80;46.20;;;;;;4926247;29;20040;-89
2022/03/31 09:50:10;;;;;;;5.68;3.58;;;10.80;46.20;;;;;;4932067;29;20032;-82
2022/03/31 09:52:38;;;;;;;6.63;4.28;;;10.80;46.40;;;;;;4931409;29;20099;-79
2022/03/31 09:55:04;;;;;;;6.45;4.50;;;10.80;47.10;;;;;;4931152;29;20086;-80
2022/03/31 09:57:31;;;;;;;8.55;4.40;;;10.70;46.80;;;;;;4930720;29;20027;-80
2022/03/31 09:59:58;;;;;;;6.20;4.32;;;10.60;46.50;;;;;;4894238;29;20039;-80
2022/03/31 10:02:24;;;;;;;7.35;4.50;;;10.50;46.50;;;;;;4930315;29;20529;-80
2022/03/31 10:04:51;;;;;;;8.25;4.68;;;10.50;46.70;;;;;;4930431;29;20027;-79
2022/03/31 10:07:17;;;;;;;7.57;4.22;;;10.40;46.70;;;;;;4930996;29;20526;-82
2022/03/31 10:09:44;;;;;;;8.90;4.60;;;10.30;46.80;;;;;;4930277;29;20122;-80
2022/03/31 10:12:13;;;;;;;5.68;4.20;;;10.20;46.80;;;;;;4930719;29;20032;-79
2022/03/31 10:14:59;;;;;;;6.78;4.30;;;10.20;47.00;;;;;;4930695;29;20090;-80
2022/03/31 10:17:27;;;;;;;7.68;3.58;;;10.10;47.00;;;;;;4930426;29;20214;-79
2022/03/31 10:20:05;;;;;;;4.72;3.75;;;10.00;47.00;;;;;;4931260;29;20043;-78
2022/03/31 10:25:15;;;;;;;5.05;3.67;;;9.90;47.20;;;;;;4929493;28;20415;-80
2022/03/31 10:27:47;;;;;;;5.78;3.40;;;9.80;47.10;;;;;;4930054;29;20082;-79
2022/03/31 10:30:17;;;;;;;8.40;3.90;;;9.80;47.20;;;;;;4930513;29;20031;-80
2022/03/31 10:33:09;;;;;;;6.20;4.18;;;9.80;47.40;;;;;;4912940;29;20052;-80
2022/03/31 10:35:39;;;;;;;6.70;3.70;;;9.70;47.50;;;;;;4907912;29;20124;-81
2022/03/31 10:38:23;;;;;;;8.20;3.88;;;9.70;47.70;;;;;;4931057;29;20395;-81
2022/03/31 10:40:59;;;;;;;5.93;4.15;;;9.60;47.70;;;;;;4931352;29;20039;-80
2022/03/31 10:43:32;;;;;;;5.20;3.83;;;9.60;47.60;;;;;;4930022;29;20036;-80
2022/03/31 10:46:01;;;;;;;4.63;3.92;;;9.50;47.30;;;;;;4908830;29;20066;-79
2022/03/31 10:48:29;;;;;;;6.38;3.72;;;9.50;47.40;;;;;;4897529;29;20046;-79
2022/03/31 10:51:08;;;;;;;6.35;4.30;;;9.50;47.50;;;;;;4933810;29;20400;-79
2022/03/31 10:53:39;;;;;;;5.72;3.25;;;9.50;47.60;;;;;;4899871;29;20052;-79
2022/03/31 10:56:16;;;;;;;7.18;4.03;;;9.40;47.80;;;;;;4913421;29;20036;-79
2022/03/31 10:58:43;;;;;;;6.03;4.40;;;9.40;48.10;;;;;;4929519;29;20582;-79
2022/03/31 11:01:11;;;;;;;5.40;4.22;;;9.30;48.20;;;;;;4929861;29;20074;-79
2022/03/31 11:03:38;;;;;;;8.65;5.00;;;9.30;48.50;;;;;;4913280;29;20043;-79
2022/03/31 11:06:07;;;;;;;8.63;5.53;;;9.30;48.80;;;;;;4912764;29;20031;-79
2022/03/31 11:08:45;;;;;;;7.90;5.03;;;9.30;49.20;;;;;;4912436;29;20471;-81
2022/03/31 11:11:38;;;;;;;6.82;5.28;;;9.20;49.50;;;;;;4929269;29;20051;-79
2022/03/31 11:14:09;;;;;;;10.52;5.22;;;9.20;49.90;;;;;;4927074;29;20036;-78
2022/03/31 11:16:39;;;;;;;8.15;5.38;;;9.20;50.10;;;;;;4912325;29;20043;-78
2022/03/31 11:19:07;;;;;;;6.97;5.00;;;9.10;50.40;;;;;;4927447;29;20043;-79
2022/03/31 11:21:38;;;;;;;7.97;5.28;;;9.20;50.70;;;;;;4929742;29;20063;-79
2022/03/31 11:24:07;;;;;;;8.25;5.18;;;9.10;51.00;;;;;;4929430;29;20032;-80
2022/03/31 11:26:46;;;;;;;9.93;5.32;;;9.10;51.30;;;;;;4912960;29;20062;-78
2022/03/31 11:29:17;;;;;;;8.30;5.00;;;9.10;51.70;;;;;;4929570;29;20044;-79
2022/03/31 11:31:46;;;;;;;11.00;5.45;;;9.00;51.90;;;;;;4929578;29;20186;-80
2022/03/31 11:34:24;;;;;;;7.35;5.13;;;9.00;52.10;;;;;;4928843;29;20048;-78
2022/03/31 11:36:54;;;;;;;7.25;5.03;;;9.00;52.30;;;;;;4912391;29;20040;-78
2022/03/31 11:39:30;;;;;;;7.40;4.95;;;9.00;52.20;;;;;;4912386;29;20124;-80
2022/03/31 11:41:58;;;;;;;9.13;4.90;;;8.90;52.10;;;;;;4896279;29;20534;-79
2022/03/31 11:44:26;;;;;;;7.07;4.45;;;8.90;52.40;;;;;;4911520;29;20043;-80
2022/03/31 11:46:52;;;;;;;7.45;4.20;;;8.90;52.60;;;;;;4929582;29;20047;-79
2022/03/31 11:49:26;;;;;;;8.30;5.13;;;8.90;52.60;;;;;;4896576;29;20040;-80
2022/03/31 11:51:56;;;;;;;6.32;4.47;;;8.90;52.90;;;;;;4929210;29;20044;-80
2022/03/31 11:54:23;;;;;;;8.77;5.07;;;8.80;53.00;;;;;;4929342;29;20090;-80
2022/03/31 11:57:02;;;;;;;7.25;4.70;;;8.80;53.80;;;;;;4929139;29;20042;-79
2022/03/31 11:59:29;;;;;;;8.82;5.68;;;8.80;53.30;;;;;;4896586;29;20046;-78
2022/03/31 12:01:55;;;;;;;10.18;4.97;;;8.70;53.40;;;;;;4928864;29;20046;-77
2022/03/31 12:04:27;;;;;;;10.13;5.97;;;8.70;53.50;;;;;;4929070;29;20507;-78
2022/03/31 12:06:54;;;;;;;10.60;5.32;;;8.70;53.70;;;;;;4928791;29;20131;-78
2022/03/31 12:09:25;;;;;;;13.13;5.60;;;8.60;53.70;;;;;;4930243;29;20059;-79
2022/03/31 12:11:55;;;;;;;10.00;5.75;;;8.60;53.90;;;;;;4931149;29;20047;-80
2022/03/31 12:14:22;;;;;;;7.63;5.50;;;8.60;54.20;;;;;;4931772;29;20141;-78
2022/03/31 12:16:54;;;;;;;14.25;5.53;;;8.60;54.20;;;;;;4916971;29;20047;-78
2022/03/31 12:19:22;;;;;;;13.05;6.03;;;8.60;54.30;;;;;;4936194;29;20035;-80
2022/03/31 12:21:49;;;;;;;8.77;6.13;;;8.60;54.30;;;;;;4936275;29;20040;-78
2022/03/31 12:24:16;;;;;;;10.10;5.63;;;8.50;54.50;;;;;;4917915;29;20040;-80
2022/03/31 12:26:57;;;;;;;9.73;6.38;;;8.50;54.50;;;;;;4918955;29;20470;-79
2022/03/31 12:29:26;;;;;;;8.10;5.57;;;8.50;54.60;;;;;;4916125;29;20067;-79
2022/03/31 12:32:08;;;;;;;9.82;6.07;;;8.50;54.60;;;;;;4932964;29;20159;-79
2022/03/31 12:34:39;;;;;;;9.95;5.20;;;8.50;54.40;;;;;;4916837;29;20475;-78
2022/03/31 12:37:06;;;;;;;7.80;5.15;;;8.50;54.30;;;;;;4916432;29;20040;-79
2022/03/31 12:39:43;;;;;;;7.50;5.22;;;8.50;54.30;;;;;;4915741;29;20040;-78
2022/03/31 12:42:10;;;;;;;9.77;5.22;;;8.50;54.40;;;;;;4933678;29;20508;-79
2022/03/31 12:44:41;;;;;;;9.93;5.63;;;8.50;54.60;;;;;;4916673;29;20036;-79
2022/03/31 12:47:09;;;;;;;8.07;5.05;;;8.50;54.70;;;;;;4912010;29;20082;-77
2022/03/31 12:49:40;;;;;;;7.35;5.00;;;8.50;54.70;;;;;;4931177;29;20024;-81
2022/03/31 12:52:15;;;;;;;10.80;6.53;;;8.40;54.80;;;;;;4930350;29;20080;-81
2022/03/31 12:54:54;;;;;;;7.07;4.60;;;8.30;54.80;;;;;;4917122;29;20114;-78
2022/03/31 12:57:26;;;;;;;6.20;4.38;;;8.30;54.70;;;;;;4931679;29;20090;-80
2022/03/31 13:00:07;;;;;;;7.28;4.13;;;8.40;54.80;;;;;;4933881;29;20094;-79